sensor_id;sensor_type;location;lat;lon;timestamp;P1;durP1;ratioP1;P2;durP2;ratioP2
58727;SDS011;44505;43.240;0.070;2023-03-04T00:01:01;40.00;;;21.67;;
58727;SDS011;44505;43.240;0.070;2023-03-04T00:03:26;36.67;;;22.25;;
58727;SDS011;44505;43.240;0.070;2023-03-04T00:05:52;37.92;;;21.55;;
58727;SDS011;44505;43.240;0.070;2023-03-04T00:08:17;42.33;;;23.00;;
58727;SDS011;44505;43.240;0.070;2023-03-04T00:10:42;39.08;;;21.17;;
58727;SDS011;44505;43.240;0.070;2023-03-04T00:13:08;36.00;;;22.08;;
58727;SDS011;44505;43.240;0.070;2023-03-04T00:15:33;44.78;;;24.73;;
58727;SDS011;44505;43.240;0.070;2023-03-04T00:17:58;43.63;;;23.90;;
58727;SDS011;44505;43.240;0.070;2023-03-04T00:20:24;43.47;;;23.38;;
58727;SDS011;44505;43.240;0.070;2023-03-04T00:22:49;59.40;;;29.13;;
58727;SDS011;44505;43.240;0.070;2023-03-04T00:25:14;58.88;;;27.10;;
58727;SDS011;44505;43.240;0.070;2023-03-04T00:27:40;47.88;;;23.40;;
58727;SDS011;44505;43.240;0.070;2023-03-04T00:30:06;37.97;;;21.73;;
58727;SDS011;44505;43.240;0.070;2023-03-04T00:32:31;34.25;;;22.00;;
58727;SDS011;44505;43.240;0.070;2023-03-04T00:34:56;37.28;;;21.80;;
58727;SDS011;44505;43.240;0.070;2023-03-04T00:37:22;32.47;;;20.60;;
58727;SDS011;44505;43.240;0.070;2023-03-04T00:39:47;33.60;;;20.30;;
58727;SDS011;44505;43.240;0.070;2023-03-04T00:42:13;40.63;;;22.13;;
58727;SDS011;44505;43.240;0.070;2023-03-04T00:44:38;34.75;;;22.48;;
58727;SDS011;44505;43.240;0.070;2023-03-04T00:47:03;36.80;;;21.95;;
58727;SDS011;44505;43.240;0.070;2023-03-04T00:49:29;37.83;;;21.75;;
58727;SDS011;44505;43.240;0.070;2023-03-04T00:51:54;37.55;;;21.10;;
58727;SDS011;44505;43.240;0.070;2023-03-04T00:54:19;38.28;;;21.80;;
58727;SDS011;44505;43.240;0.070;2023-03-04T00:56:45;39.85;;;21.42;;
58727;SDS011;44505;43.240;0.070;2023-03-04T00:59:11;36.97;;;21.55;;
58727;SDS011;44505;43.240;0.070;2023-03-04T01:01:36;40.00;;;21.88;;
58727;SDS011;44505;43.240;0.070;2023-03-04T01:04:01;35.75;;;21.83;;
58727;SDS011;44505;43.240;0.070;2023-03-04T01:06:27;43.13;;;22.80;;
58727;SDS011;44505;43.240;0.070;2023-03-04T01:08:52;37.75;;;21.92;;
58727;SDS011;44505;43.240;0.070;2023-03-04T01:11:18;34.38;;;20.65;;
58727;SDS011;44505;43.240;0.070;2023-03-04T01:13:43;39.90;;;21.10;;
58727;SDS011;44505;43.240;0.070;2023-03-04T01:16:08;35.45;;;21.85;;
58727;SDS011;44505;43.240;0.070;2023-03-04T01:18:35;43.05;;;25.23;;
58727;SDS011;44505;43.240;0.070;2023-03-04T01:21:00;43.72;;;24.58;;
58727;SDS011;44505;43.240;0.070;2023-03-04T01:23:25;36.38;;;22.48;;
58727;SDS011;44505;43.240;0.070;2023-03-04T01:25:51;35.38;;;19.98;;
58727;SDS011;44505;43.240;0.070;2023-03-04T01:28:16;35.85;;;20.38;;
58727;SDS011;44505;43.240;0.070;2023-03-04T01:30:42;29.33;;;19.25;;
58727;SDS011;44505;43.240;0.070;2023-03-04T01:33:07;32.25;;;20.05;;
58727;SDS011;44505;43.240;0.070;2023-03-04T01:35:32;35.22;;;21.13;;
58727;SDS011;44505;43.240;0.070;2023-03-04T01:37:58;44.97;;;21.95;;
58727;SDS011;44505;43.240;0.070;2023-03-04T01:40:23;33.10;;;20.42;;
58727;SDS011;44505;43.240;0.070;2023-03-04T01:42:48;37.30;;;22.38;;
58727;SDS011;44505;43.240;0.070;2023-03-04T01:45:15;36.13;;;22.00;;
58727;SDS011;44505;43.240;0.070;2023-03-04T01:50:15;34.58;;;19.35;;
58727;SDS011;44505;43.240;0.070;2023-03-04T01:52:42;32.63;;;20.40;;
58727;SDS011;44505;43.240;0.070;2023-03-04T01:55:14;38.42;;;21.67;;
58727;SDS011;44505;43.240;0.070;2023-03-04T01:57:40;34.05;;;20.33;;
58727;SDS011;44505;43.240;0.070;2023-03-04T02:00:17;36.00;;;21.40;;
58727;SDS011;44505;43.240;0.070;2023-03-04T02:02:43;44.88;;;20.63;;
58727;SDS011;44505;43.240;0.070;2023-03-04T02:05:09;43.05;;;23.17;;
58727;SDS011;44505;43.240;0.070;2023-03-04T02:07:34;37.95;;;22.77;;
58727;SDS011;44505;43.240;0.070;2023-03-04T02:10:00;36.47;;;21.80;;
58727;SDS011;44505;43.240;0.070;2023-03-04T02:12:25;38.97;;;21.63;;
58727;SDS011;44505;43.240;0.070;2023-03-04T02:14:50;53.20;;;29.35;;
58727;SDS011;44505;43.240;0.070;2023-03-04T02:17:16;77.53;;;40.03;;
58727;SDS011;44505;43.240;0.070;2023-03-04T02:19:49;46.50;;;25.42;;
58727;SDS011;44505;43.240;0.070;2023-03-04T02:22:15;59.55;;;32.65;;
58727;SDS011;44505;43.240;0.070;2023-03-04T02:24:59;50.17;;;25.88;;
58727;SDS011;44505;43.240;0.070;2023-03-04T02:27:27;54.80;;;29.77;;
58727;SDS011;44505;43.240;0.070;2023-03-04T02:29:52;52.53;;;28.63;;
58727;SDS011;44505;43.240;0.070;2023-03-04T02:32:17;32.25;;;17.55;;
58727;SDS011;44505;43.240;0.070;2023-03-04T02:34:46;20.23;;;13.68;;
58727;SDS011;44505;43.240;0.070;2023-03-04T02:37:13;22.92;;;13.07;;
58727;SDS011;44505;43.240;0.070;2023-03-04T02:39:39;16.23;;;10.63;;
58727;SDS011;44505;43.240;0.070;2023-03-04T02:42:06;16.85;;;10.45;;
58727;SDS011;44505;43.240;0.070;2023-03-04T02:44:32;17.20;;;10.02;;
58727;SDS011;44505;43.240;0.070;2023-03-04T02:46:59;12.68;;;9.07;;
58727;SDS011;44505;43.240;0.070;2023-03-04T02:49:25;16.27;;;9.95;;
58727;SDS011;44505;43.240;0.070;2023-03-04T02:51:52;15.20;;;9.52;;
58727;SDS011;44505;43.240;0.070;2023-03-04T02:54:22;25.42;;;11.98;;
58727;SDS011;44505;43.240;0.070;2023-03-04T02:56:49;25.52;;;13.20;;
58727;SDS011;44505;43.240;0.070;2023-03-04T02:59:15;21.15;;;13.00;;
58727;SDS011;44505;43.240;0.070;2023-03-04T03:01:40;18.75;;;10.52;;
58727;SDS011;44505;43.240;0.070;2023-03-04T03:04:06;23.58;;;12.82;;
58727;SDS011;44505;43.240;0.070;2023-03-04T03:06:31;14.90;;;9.45;;
58727;SDS011;44505;43.240;0.070;2023-03-04T03:08:56;12.02;;;6.90;;
58727;SDS011;44505;43.240;0.070;2023-03-04T03:11:22;8.93;;;6.65;;
58727;SDS011;44505;43.240;0.070;2023-03-04T03:13:47;15.27;;;8.10;;
58727;SDS011;44505;43.240;0.070;2023-03-04T03:16:13;14.73;;;8.43;;
58727;SDS011;44505;43.240;0.070;2023-03-04T03:18:38;13.25;;;7.55;;
58727;SDS011;44505;43.240;0.070;2023-03-04T03:21:04;13.18;;;7.75;;
58727;SDS011;44505;43.240;0.070;2023-03-04T03:23:30;16.30;;;8.63;;
58727;SDS011;44505;43.240;0.070;2023-03-04T03:25:55;13.88;;;8.45;;
58727;SDS011;44505;43.240;0.070;2023-03-04T03:28:20;23.58;;;11.65;;
58727;SDS011;44505;43.240;0.070;2023-03-04T03:30:46;21.80;;;11.27;;
58727;SDS011;44505;43.240;0.070;2023-03-04T03:33:11;14.18;;;8.25;;
58727;SDS011;44505;43.240;0.070;2023-03-04T03:35:36;14.63;;;8.75;;
58727;SDS011;44505;43.240;0.070;2023-03-04T03:38:02;9.25;;;7.07;;
58727;SDS011;44505;43.240;0.070;2023-03-04T03:40:27;17.77;;;9.68;;
58727;SDS011;44505;43.240;0.070;2023-03-04T03:42:53;11.57;;;6.85;;
58727;SDS011;44505;43.240;0.070;2023-03-04T03:45:18;12.05;;;7.55;;
58727;SDS011;44505;43.240;0.070;2023-03-04T03:47:44;12.20;;;7.45;;
58727;SDS011;44505;43.240;0.070;2023-03-04T03:50:09;14.80;;;8.35;;
58727;SDS011;44505;43.240;0.070;2023-03-04T03:52:35;14.02;;;7.25;;
58727;SDS011;44505;43.240;0.070;2023-03-04T03:55:00;9.57;;;6.68;;
58727;SDS011;44505;43.240;0.070;2023-03-04T03:57:26;6.68;;;5.30;;
58727;SDS011;44505;43.240;0.070;2023-03-04T03:59:51;9.10;;;5.78;;
58727;SDS011;44505;43.240;0.070;2023-03-04T04:02:17;7.22;;;5.13;;
58727;SDS011;44505;43.240;0.070;2023-03-04T04:04:42;8.88;;;5.15;;
58727;SDS011;44505;43.240;0.070;2023-03-04T04:07:07;8.80;;;5.45;;
58727;SDS011;44505;43.240;0.070;2023-03-04T04:09:33;13.57;;;7.35;;
58727;SDS011;44505;43.240;0.070;2023-03-04T04:11:58;7.60;;;5.57;;
58727;SDS011;44505;43.240;0.070;2023-03-04T04:14:24;5.43;;;4.07;;
58727;SDS011;44505;43.240;0.070;2023-03-04T04:16:49;5.60;;;4.45;;
58727;SDS011;44505;43.240;0.070;2023-03-04T04:19:18;7.38;;;5.05;;
58727;SDS011;44505;43.240;0.070;2023-03-04T04:21:44;23.05;;;8.88;;
58727;SDS011;44505;43.240;0.070;2023-03-04T04:24:09;12.80;;;7.68;;
58727;SDS011;44505;43.240;0.070;2023-03-04T04:26:34;12.15;;;6.53;;
58727;SDS011;44505;43.240;0.070;2023-03-04T04:29:00;27.95;;;10.90;;
58727;SDS011;44505;43.240;0.070;2023-03-04T04:31:25;26.48;;;10.15;;
58727;SDS011;44505;43.240;0.070;2023-03-04T04:33:51;21.15;;;7.93;;
58727;SDS011;44505;43.240;0.070;2023-03-04T04:36:16;10.85;;;6.32;;
58727;SDS011;44505;43.240;0.070;2023-03-04T04:38:42;29.98;;;12.20;;
58727;SDS011;44505;43.240;0.070;2023-03-04T04:41:41;14.30;;;7.88;;
58727;SDS011;44505;43.240;0.070;2023-03-04T04:43:59;7.30;;;4.78;;
58727;SDS011;44505;43.240;0.070;2023-03-04T04:46:24;18.65;;;7.43;;
58727;SDS011;44505;43.240;0.070;2023-03-04T04:48:50;10.55;;;5.63;;
58727;SDS011;44505;43.240;0.070;2023-03-04T04:51:15;10.48;;;6.05;;
58727;SDS011;44505;43.240;0.070;2023-03-04T04:53:41;11.85;;;6.30;;
58727;SDS011;44505;43.240;0.070;2023-03-04T04:56:07;7.10;;;4.78;;
58727;SDS011;44505;43.240;0.070;2023-03-04T04:58:33;13.38;;;6.50;;
58727;SDS011;44505;43.240;0.070;2023-03-04T05:00:58;10.18;;;5.45;;
58727;SDS011;44505;43.240;0.070;2023-03-04T05:03:24;10.95;;;5.97;;
58727;SDS011;44505;43.240;0.070;2023-03-04T05:05:49;13.88;;;6.70;;
58727;SDS011;44505;43.240;0.070;2023-03-04T05:08:14;8.15;;;4.65;;
58727;SDS011;44505;43.240;0.070;2023-03-04T05:10:40;6.90;;;4.20;;
58727;SDS011;44505;43.240;0.070;2023-03-04T05:13:05;7.97;;;4.13;;
58727;SDS011;44505;43.240;0.070;2023-03-04T05:15:31;6.75;;;4.28;;
58727;SDS011;44505;43.240;0.070;2023-03-04T05:17:56;9.43;;;5.93;;
58727;SDS011;44505;43.240;0.070;2023-03-04T05:20:21;8.55;;;4.60;;
58727;SDS011;44505;43.240;0.070;2023-03-04T05:22:48;8.15;;;4.57;;
58727;SDS011;44505;43.240;0.070;2023-03-04T05:25:13;7.47;;;4.80;;
58727;SDS011;44505;43.240;0.070;2023-03-04T05:27:38;7.45;;;4.82;;
58727;SDS011;44505;43.240;0.070;2023-03-04T05:30:04;7.43;;;5.15;;
58727;SDS011;44505;43.240;0.070;2023-03-04T05:32:29;13.48;;;7.80;;
58727;SDS011;44505;43.240;0.070;2023-03-04T05:34:55;10.45;;;6.25;;
58727;SDS011;44505;43.240;0.070;2023-03-04T05:37:20;12.65;;;6.65;;
58727;SDS011;44505;43.240;0.070;2023-03-04T05:39:45;9.88;;;5.28;;
58727;SDS011;44505;43.240;0.070;2023-03-04T05:42:11;7.80;;;4.63;;
58727;SDS011;44505;43.240;0.070;2023-03-04T05:44:36;11.02;;;6.45;;
58727;SDS011;44505;43.240;0.070;2023-03-04T05:47:02;7.57;;;5.28;;
58727;SDS011;44505;43.240;0.070;2023-03-04T05:49:27;10.05;;;5.50;;
58727;SDS011;44505;43.240;0.070;2023-03-04T05:51:52;6.43;;;4.50;;
58727;SDS011;44505;43.240;0.070;2023-03-04T05:54:18;9.02;;;5.82;;
58727;SDS011;44505;43.240;0.070;2023-03-04T05:56:44;6.85;;;5.22;;
58727;SDS011;44505;43.240;0.070;2023-03-04T05:59:09;8.73;;;6.03;;
58727;SDS011;44505;43.240;0.070;2023-03-04T06:01:35;7.65;;;4.75;;
58727;SDS011;44505;43.240;0.070;2023-03-04T06:04:00;6.03;;;4.68;;
58727;SDS011;44505;43.240;0.070;2023-03-04T06:06:25;8.30;;;3.60;;
58727;SDS011;44505;43.240;0.070;2023-03-04T06:08:51;5.45;;;3.70;;
58727;SDS011;44505;43.240;0.070;2023-03-04T06:11:16;6.25;;;4.03;;
58727;SDS011;44505;43.240;0.070;2023-03-04T06:13:41;5.75;;;4.28;;
58727;SDS011;44505;43.240;0.070;2023-03-04T06:16:08;9.32;;;6.70;;
58727;SDS011;44505;43.240;0.070;2023-03-04T06:18:33;9.15;;;5.00;;
58727;SDS011;44505;43.240;0.070;2023-03-04T06:20:59;7.57;;;5.15;;
58727;SDS011;44505;43.240;0.070;2023-03-04T06:23:25;9.20;;;5.80;;
58727;SDS011;44505;43.240;0.070;2023-03-04T06:25:51;6.60;;;4.07;;
58727;SDS011;44505;43.240;0.070;2023-03-04T06:28:17;6.90;;;4.97;;
58727;SDS011;44505;43.240;0.070;2023-03-04T06:30:43;8.32;;;4.95;;
58727;SDS011;44505;43.240;0.070;2023-03-04T06:33:08;8.98;;;6.90;;
58727;SDS011;44505;43.240;0.070;2023-03-04T06:35:33;11.60;;;6.53;;
58727;SDS011;44505;43.240;0.070;2023-03-04T06:37:59;13.05;;;8.88;;
58727;SDS011;44505;43.240;0.070;2023-03-04T06:40:24;6.65;;;5.20;;
58727;SDS011;44505;43.240;0.070;2023-03-04T06:42:49;8.00;;;5.40;;
58727;SDS011;44505;43.240;0.070;2023-03-04T06:45:15;6.80;;;4.38;;
58727;SDS011;44505;43.240;0.070;2023-03-04T06:47:40;14.75;;;8.07;;
58727;SDS011;44505;43.240;0.070;2023-03-04T06:50:06;10.55;;;5.40;;
58727;SDS011;44505;43.240;0.070;2023-03-04T06:52:31;5.30;;;4.38;;
58727;SDS011;44505;43.240;0.070;2023-03-04T06:54:57;8.48;;;5.10;;
58727;SDS011;44505;43.240;0.070;2023-03-04T06:57:22;12.27;;;4.72;;
58727;SDS011;44505;43.240;0.070;2023-03-04T06:59:47;7.43;;;4.40;;
58727;SDS011;44505;43.240;0.070;2023-03-04T07:02:13;9.75;;;5.40;;
58727;SDS011;44505;43.240;0.070;2023-03-04T07:04:38;8.45;;;5.35;;
58727;SDS011;44505;43.240;0.070;2023-03-04T07:07:04;6.53;;;4.13;;
58727;SDS011;44505;43.240;0.070;2023-03-04T07:09:29;9.38;;;4.13;;
58727;SDS011;44505;43.240;0.070;2023-03-04T07:11:55;6.20;;;4.10;;
58727;SDS011;44505;43.240;0.070;2023-03-04T07:14:20;8.85;;;4.68;;
58727;SDS011;44505;43.240;0.070;2023-03-04T07:16:46;9.27;;;4.03;;
58727;SDS011;44505;43.240;0.070;2023-03-04T07:19:11;9.00;;;4.82;;
58727;SDS011;44505;43.240;0.070;2023-03-04T07:21:36;7.22;;;3.50;;
58727;SDS011;44505;43.240;0.070;2023-03-04T07:24:02;12.98;;;5.22;;
58727;SDS011;44505;43.240;0.070;2023-03-04T07:26:28;11.95;;;5.55;;
58727;SDS011;44505;43.240;0.070;2023-03-04T07:28:53;10.57;;;4.95;;
58727;SDS011;44505;43.240;0.070;2023-03-04T07:33:44;8.98;;;5.10;;
58727;SDS011;44505;43.240;0.070;2023-03-04T07:36:09;17.50;;;8.85;;
58727;SDS011;44505;43.240;0.070;2023-03-04T07:38:35;7.03;;;5.35;;
58727;SDS011;44505;43.240;0.070;2023-03-04T07:41:00;8.13;;;5.18;;
58727;SDS011;44505;43.240;0.070;2023-03-04T07:43:26;9.98;;;5.90;;
58727;SDS011;44505;43.240;0.070;2023-03-04T07:45:51;8.25;;;4.97;;
58727;SDS011;44505;43.240;0.070;2023-03-04T07:48:17;7.30;;;4.82;;
58727;SDS011;44505;43.240;0.070;2023-03-04T07:50:42;9.30;;;6.15;;
58727;SDS011;44505;43.240;0.070;2023-03-04T07:53:07;13.38;;;7.10;;
58727;SDS011;44505;43.240;0.070;2023-03-04T07:55:33;29.08;;;15.57;;
58727;SDS011;44505;43.240;0.070;2023-03-04T07:57:58;23.48;;;12.10;;
58727;SDS011;44505;43.240;0.070;2023-03-04T08:00:24;23.98;;;12.23;;
58727;SDS011;44505;43.240;0.070;2023-03-04T08:02:49;16.58;;;9.43;;
58727;SDS011;44505;43.240;0.070;2023-03-04T08:05:15;19.33;;;10.85;;
58727;SDS011;44505;43.240;0.070;2023-03-04T08:07:40;11.55;;;8.13;;
58727;SDS011;44505;43.240;0.070;2023-03-04T08:10:05;14.68;;;9.25;;
58727;SDS011;44505;43.240;0.070;2023-03-04T08:12:32;9.30;;;6.65;;
58727;SDS011;44505;43.240;0.070;2023-03-04T08:14:58;7.30;;;5.18;;
58727;SDS011;44505;43.240;0.070;2023-03-04T08:17:23;8.18;;;4.63;;
58727;SDS011;44505;43.240;0.070;2023-03-04T08:19:49;9.55;;;5.47;;
58727;SDS011;44505;43.240;0.070;2023-03-04T08:22:14;9.80;;;6.03;;
58727;SDS011;44505;43.240;0.070;2023-03-04T08:24:39;8.77;;;5.55;;
58727;SDS011;44505;43.240;0.070;2023-03-04T08:27:05;9.38;;;5.28;;
58727;SDS011;44505;43.240;0.070;2023-03-04T08:29:30;19.05;;;7.53;;
58727;SDS011;44505;43.240;0.070;2023-03-04T08:31:56;21.77;;;9.73;;
58727;SDS011;44505;43.240;0.070;2023-03-04T08:34:23;17.55;;;9.45;;
58727;SDS011;44505;43.240;0.070;2023-03-04T08:36:49;25.17;;;11.85;;
58727;SDS011;44505;43.240;0.070;2023-03-04T08:39:15;45.28;;;19.60;;
58727;SDS011;44505;43.240;0.070;2023-03-04T08:41:41;70.03;;;31.57;;
58727;SDS011;44505;43.240;0.070;2023-03-04T08:44:06;40.70;;;18.35;;
58727;SDS011;44505;43.240;0.070;2023-03-04T08:46:34;12.38;;;7.38;;
58727;SDS011;44505;43.240;0.070;2023-03-04T08:48:59;11.68;;;7.07;;
58727;SDS011;44505;43.240;0.070;2023-03-04T08:51:25;8.30;;;5.47;;
58727;SDS011;44505;43.240;0.070;2023-03-04T08:53:50;9.82;;;5.43;;
58727;SDS011;44505;43.240;0.070;2023-03-04T08:56:16;10.43;;;5.72;;
58727;SDS011;44505;43.240;0.070;2023-03-04T08:58:41;6.63;;;4.38;;
58727;SDS011;44505;43.240;0.070;2023-03-04T09:01:08;8.75;;;5.65;;
58727;SDS011;44505;43.240;0.070;2023-03-04T09:03:34;8.20;;;4.93;;
58727;SDS011;44505;43.240;0.070;2023-03-04T09:06:00;10.15;;;5.55;;
58727;SDS011;44505;43.240;0.070;2023-03-04T09:08:25;6.82;;;4.32;;
58727;SDS011;44505;43.240;0.070;2023-03-04T09:10:52;20.25;;;11.70;;
58727;SDS011;44505;43.240;0.070;2023-03-04T09:13:18;36.28;;;19.63;;
58727;SDS011;44505;43.240;0.070;2023-03-04T09:15:46;67.72;;;31.98;;
58727;SDS011;44505;43.240;0.070;2023-03-04T09:18:12;70.10;;;33.10;;
58727;SDS011;44505;43.240;0.070;2023-03-04T09:20:38;17.27;;;10.80;;
58727;SDS011;44505;43.240;0.070;2023-03-04T09:23:03;41.03;;;20.52;;
58727;SDS011;44505;43.240;0.070;2023-03-04T09:25:29;16.00;;;9.05;;
58727;SDS011;44505;43.240;0.070;2023-03-04T09:27:54;16.48;;;9.52;;
58727;SDS011;44505;43.240;0.070;2023-03-04T09:30:20;14.73;;;9.27;;
58727;SDS011;44505;43.240;0.070;2023-03-04T09:32:45;12.40;;;8.88;;
58727;SDS011;44505;43.240;0.070;2023-03-04T09:35:11;12.90;;;8.00;;
58727;SDS011;44505;43.240;0.070;2023-03-04T09:37:36;10.38;;;7.80;;
58727;SDS011;44505;43.240;0.070;2023-03-04T09:40:02;11.38;;;6.93;;
58727;SDS011;44505;43.240;0.070;2023-03-04T09:42:35;15.23;;;8.07;;
58727;SDS011;44505;43.240;0.070;2023-03-04T09:45:03;12.45;;;8.02;;
58727;SDS011;44505;43.240;0.070;2023-03-04T09:47:29;13.50;;;8.82;;
58727;SDS011;44505;43.240;0.070;2023-03-04T09:49:57;10.27;;;6.63;;
58727;SDS011;44505;43.240;0.070;2023-03-04T09:55:04;10.90;;;7.13;;
58727;SDS011;44505;43.240;0.070;2023-03-04T10:00:15;10.20;;;6.28;;
58727;SDS011;44505;43.240;0.070;2023-03-04T10:02:52;17.60;;;9.45;;
58727;SDS011;44505;43.240;0.070;2023-03-04T10:05:22;8.32;;;6.45;;
58727;SDS011;44505;43.240;0.070;2023-03-04T10:07:51;10.25;;;6.85;;
58727;SDS011;44505;43.240;0.070;2023-03-04T10:10:29;8.68;;;6.22;;
58727;SDS011;44505;43.240;0.070;2023-03-04T10:12:56;9.00;;;6.63;;
58727;SDS011;44505;43.240;0.070;2023-03-04T10:17:55;11.88;;;7.07;;
58727;SDS011;44505;43.240;0.070;2023-03-04T10:20:30;11.80;;;7.25;;
58727;SDS011;44505;43.240;0.070;2023-03-04T10:22:58;9.65;;;6.90;;
58727;SDS011;44505;43.240;0.070;2023-03-04T10:25:25;10.35;;;7.68;;
58727;SDS011;44505;43.240;0.070;2023-03-04T10:27:53;12.48;;;6.88;;
58727;SDS011;44505;43.240;0.070;2023-03-04T10:30:36;9.45;;;7.38;;
58727;SDS011;44505;43.240;0.070;2023-03-04T10:33:14;12.55;;;7.43;;
58727;SDS011;44505;43.240;0.070;2023-03-04T10:35:40;10.00;;;7.15;;
58727;SDS011;44505;43.240;0.070;2023-03-04T10:40:38;11.25;;;7.80;;
58727;SDS011;44505;43.240;0.070;2023-03-04T10:43:04;10.48;;;8.25;;
58727;SDS011;44505;43.240;0.070;2023-03-04T10:45:37;13.43;;;8.75;;
58727;SDS011;44505;43.240;0.070;2023-03-04T10:48:03;13.65;;;8.45;;
58727;SDS011;44505;43.240;0.070;2023-03-04T10:50:28;13.45;;;8.68;;
58727;SDS011;44505;43.240;0.070;2023-03-04T10:52:54;16.52;;;9.32;;
58727;SDS011;44505;43.240;0.070;2023-03-04T10:55:29;12.88;;;8.73;;
58727;SDS011;44505;43.240;0.070;2023-03-04T10:58:06;16.50;;;10.30;;
58727;SDS011;44505;43.240;0.070;2023-03-04T11:00:35;17.02;;;10.23;;
58727;SDS011;44505;43.240;0.070;2023-03-04T11:05:44;16.45;;;10.25;;
58727;SDS011;44505;43.240;0.070;2023-03-04T11:08:16;16.20;;;10.30;;
58727;SDS011;44505;43.240;0.070;2023-03-04T11:10:43;18.40;;;11.52;;
58727;SDS011;44505;43.240;0.070;2023-03-04T11:13:12;18.40;;;11.13;;
58727;SDS011;44505;43.240;0.070;2023-03-04T11:15:52;15.30;;;11.13;;
58727;SDS011;44505;43.240;0.070;2023-03-04T11:18:22;16.58;;;10.65;;
58727;SDS011;44505;43.240;0.070;2023-03-04T11:20:51;16.75;;;10.38;;
58727;SDS011;44505;43.240;0.070;2023-03-04T11:25:45;16.83;;;11.45;;
58727;SDS011;44505;43.240;0.070;2023-03-04T11:28:19;17.90;;;11.18;;
58727;SDS011;44505;43.240;0.070;2023-03-04T11:33:16;14.30;;;11.30;;
58727;SDS011;44505;43.240;0.070;2023-03-04T11:35:56;19.45;;;12.50;;
58727;SDS011;44505;43.240;0.070;2023-03-04T11:38:45;17.45;;;12.70;;
58727;SDS011;44505;43.240;0.070;2023-03-04T11:41:53;17.92;;;11.63;;
58727;SDS011;44505;43.240;0.070;2023-03-04T11:44:00;15.55;;;11.20;;
58727;SDS011;44505;43.240;0.070;2023-03-04T11:56:42;17.73;;;12.30;;
58727;SDS011;44505;43.240;0.070;2023-03-04T12:02:03;18.98;;;11.55;;
58727;SDS011;44505;43.240;0.070;2023-03-04T12:12:21;19.48;;;12.57;;
58727;SDS011;44505;43.240;0.070;2023-03-04T12:17:57;20.42;;;13.13;;
58727;SDS011;44505;43.240;0.070;2023-03-04T12:28:42;20.63;;;14.75;;
58727;SDS011;44505;43.240;0.070;2023-03-04T12:30:54;20.27;;;13.18;;
58727;SDS011;44505;43.240;0.070;2023-03-04T12:35:56;20.20;;;14.48;;
58727;SDS011;44505;43.240;0.070;2023-03-04T12:56:04;22.67;;;15.75;;
58727;SDS011;44505;43.240;0.070;2023-03-04T12:58:31;20.45;;;15.90;;
58727;SDS011;44505;43.240;0.070;2023-03-04T13:06:04;21.08;;;14.32;;
58727;SDS011;44505;43.240;0.070;2023-03-04T13:11:01;21.75;;;15.27;;
58727;SDS011;44505;43.240;0.070;2023-03-04T13:16:03;21.70;;;15.73;;
58727;SDS011;44505;43.240;0.070;2023-03-04T13:18:30;22.42;;;13.50;;
58727;SDS011;44505;43.240;0.070;2023-03-04T13:23:55;24.23;;;15.77;;
58727;SDS011;44505;43.240;0.070;2023-03-04T13:28:53;22.67;;;15.63;;
58727;SDS011;44505;43.240;0.070;2023-03-04T13:31:27;22.55;;;15.77;;
58727;SDS011;44505;43.240;0.070;2023-03-04T13:33:54;22.83;;;14.73;;
58727;SDS011;44505;43.240;0.070;2023-03-04T13:36:33;23.43;;;16.10;;
58727;SDS011;44505;43.240;0.070;2023-03-04T13:41:46;23.73;;;16.05;;
58727;SDS011;44505;43.240;0.070;2023-03-04T13:46:56;24.50;;;15.93;;
58727;SDS011;44505;43.240;0.070;2023-03-04T13:49:21;23.45;;;16.17;;
58727;SDS011;44505;43.240;0.070;2023-03-04T13:51:48;20.00;;;14.02;;
58727;SDS011;44505;43.240;0.070;2023-03-04T13:54:25;23.02;;;16.27;;
58727;SDS011;44505;43.240;0.070;2023-03-04T14:02:15;19.67;;;13.90;;
58727;SDS011;44505;43.240;0.070;2023-03-04T14:07:35;23.05;;;14.93;;
58727;SDS011;44505;43.240;0.070;2023-03-04T14:10:02;21.75;;;15.25;;
58727;SDS011;44505;43.240;0.070;2023-03-04T14:12:35;20.60;;;15.65;;
58727;SDS011;44505;43.240;0.070;2023-03-04T14:15:05;21.13;;;15.60;;
58727;SDS011;44505;43.240;0.070;2023-03-04T14:17:43;24.88;;;16.48;;
58727;SDS011;44505;43.240;0.070;2023-03-04T14:22:46;21.48;;;13.43;;
58727;SDS011;44505;43.240;0.070;2023-03-04T14:27:37;18.00;;;13.45;;
58727;SDS011;44505;43.240;0.070;2023-03-04T14:30:24;22.38;;;15.98;;
58727;SDS011;44505;43.240;0.070;2023-03-04T14:32:49;23.02;;;15.88;;
58727;SDS011;44505;43.240;0.070;2023-03-04T14:35:22;21.10;;;14.27;;
58727;SDS011;44505;43.240;0.070;2023-03-04T14:38:03;24.15;;;17.08;;
58727;SDS011;44505;43.240;0.070;2023-03-04T14:40:31;23.52;;;15.60;;
58727;SDS011;44505;43.240;0.070;2023-03-04T14:43:02;25.27;;;16.02;;
58727;SDS011;44505;43.240;0.070;2023-03-04T14:45:28;22.33;;;15.73;;
58727;SDS011;44505;43.240;0.070;2023-03-04T14:47:55;22.00;;;14.77;;
58727;SDS011;44505;43.240;0.070;2023-03-04T14:50:21;24.58;;;15.80;;
58727;SDS011;44505;43.240;0.070;2023-03-04T14:52:48;22.08;;;16.00;;
58727;SDS011;44505;43.240;0.070;2023-03-04T14:57:42;20.88;;;14.18;;
58727;SDS011;44505;43.240;0.070;2023-03-04T15:00:14;23.02;;;15.35;;
58727;SDS011;44505;43.240;0.070;2023-03-04T15:02:40;23.08;;;16.98;;
58727;SDS011;44505;43.240;0.070;2023-03-04T15:05:07;22.83;;;15.60;;
58727;SDS011;44505;43.240;0.070;2023-03-04T15:07:34;19.80;;;14.73;;
58727;SDS011;44505;43.240;0.070;2023-03-04T15:10:01;24.97;;;15.93;;
58727;SDS011;44505;43.240;0.070;2023-03-04T15:12:28;23.17;;;16.53;;
58727;SDS011;44505;43.240;0.070;2023-03-04T15:14:55;21.83;;;15.43;;
58727;SDS011;44505;43.240;0.070;2023-03-04T15:17:22;23.58;;;15.18;;
58727;SDS011;44505;43.240;0.070;2023-03-04T15:19:58;22.27;;;15.75;;
58727;SDS011;44505;43.240;0.070;2023-03-04T15:22:24;22.63;;;14.82;;
58727;SDS011;44505;43.240;0.070;2023-03-04T15:24:49;20.90;;;14.90;;
58727;SDS011;44505;43.240;0.070;2023-03-04T15:27:15;21.38;;;15.57;;
58727;SDS011;44505;43.240;0.070;2023-03-04T15:29:41;22.67;;;17.35;;
58727;SDS011;44505;43.240;0.070;2023-03-04T15:32:08;23.45;;;16.00;;
58727;SDS011;44505;43.240;0.070;2023-03-04T15:34:33;21.90;;;15.95;;
58727;SDS011;44505;43.240;0.070;2023-03-04T15:36:58;20.65;;;15.07;;
58727;SDS011;44505;43.240;0.070;2023-03-04T15:39:24;25.90;;;15.38;;
58727;SDS011;44505;43.240;0.070;2023-03-04T15:41:51;23.52;;;13.98;;
58727;SDS011;44505;43.240;0.070;2023-03-04T15:44:17;21.77;;;16.40;;
58727;SDS011;44505;43.240;0.070;2023-03-04T15:46:42;25.83;;;15.77;;
58727;SDS011;44505;43.240;0.070;2023-03-04T15:49:07;23.20;;;15.82;;
58727;SDS011;44505;43.240;0.070;2023-03-04T15:51:33;26.85;;;14.48;;
58727;SDS011;44505;43.240;0.070;2023-03-04T15:53:58;20.55;;;14.68;;
58727;SDS011;44505;43.240;0.070;2023-03-04T15:58:53;21.30;;;14.60;;
58727;SDS011;44505;43.240;0.070;2023-03-04T16:01:19;26.17;;;15.82;;
58727;SDS011;44505;43.240;0.070;2023-03-04T16:03:45;25.67;;;15.63;;
58727;SDS011;44505;43.240;0.070;2023-03-04T16:06:10;23.25;;;15.65;;
58727;SDS011;44505;43.240;0.070;2023-03-04T16:08:36;24.15;;;15.98;;
58727;SDS011;44505;43.240;0.070;2023-03-04T16:11:02;21.52;;;16.05;;
58727;SDS011;44505;43.240;0.070;2023-03-04T16:13:28;25.35;;;15.65;;
58727;SDS011;44505;43.240;0.070;2023-03-04T16:15:53;25.23;;;15.18;;
58727;SDS011;44505;43.240;0.070;2023-03-04T16:18:18;22.83;;;15.18;;
58727;SDS011;44505;43.240;0.070;2023-03-04T16:20:45;23.35;;;15.65;;
58727;SDS011;44505;43.240;0.070;2023-03-04T16:23:13;27.92;;;15.98;;